createdAt,value
2022-10-08T00:00:57.802Z,20.20
2022-10-08T00:03:52.369Z,20.40
2022-10-08T00:06:45.065Z,17.58
2022-10-08T00:09:38.528Z,20.58
2022-10-08T00:12:36.072Z,22.35
2022-10-08T00:15:28.092Z,23.30
2022-10-08T00:18:20.009Z,20.27
2022-10-08T00:21:38.768Z,22.67
2022-10-08T00:24:30.665Z,23.70
2022-10-08T00:27:37.538Z,19.75
2022-10-08T00:30:37.661Z,21.77
2022-10-08T00:33:35.758Z,18.75
2022-10-08T00:36:34.420Z,15.77
2022-10-08T00:39:31.003Z,17.42
2022-10-08T00:42:25.400Z,16.27
2022-10-08T00:45:24.706Z,16.50
2022-10-08T00:48:27.405Z,22.15
2022-10-08T00:51:19.688Z,23.58
2022-10-08T00:54:25.361Z,18.55
2022-10-08T01:00:42.073Z,17.00
2022-10-08T01:03:48.737Z,18.98
2022-10-08T01:07:14.305Z,23.27
2022-10-08T01:10:21.693Z,24.10
2022-10-08T01:16:49.580Z,20.23
2022-10-08T01:19:59.710Z,23.67
2022-10-08T01:23:21.779Z,25.00
2022-10-08T01:26:26.658Z,23.88
2022-10-08T01:29:26.029Z,25.50
2022-10-08T01:32:22.445Z,20.90
2022-10-08T01:35:21.052Z,20.98
2022-10-08T01:38:20.123Z,23.27
2022-10-08T01:41:15.809Z,17.90
2022-10-08T01:44:24.608Z,21.13
2022-10-08T01:47:23.934Z,25.98
2022-10-08T01:50:20.712Z,24.20
2022-10-08T01:53:16.814Z,23.27
2022-10-08T01:56:12.464Z,19.05
2022-10-08T01:59:11.015Z,19.52
2022-10-08T02:02:24.137Z,20.08
2022-10-08T02:05:18.306Z,21.10
2022-10-08T02:11:01.336Z,20.70
2022-10-08T02:13:52.749Z,22.17
2022-10-08T02:16:52.918Z,19.75
2022-10-08T02:19:54.823Z,21.48
2022-10-08T02:23:05.092Z,23.92
2022-10-08T02:26:06.712Z,20.27
2022-10-08T02:29:06.846Z,24.25
2022-10-08T02:32:09.690Z,21.63
2022-10-08T02:35:32.537Z,19.27
2022-10-08T02:38:34.773Z,20.58
2022-10-08T02:41:50.861Z,21.60
2022-10-08T02:45:07.961Z,20.88
2022-10-08T02:48:08.908Z,18.42
2022-10-08T02:51:06.462Z,18.52
2022-10-08T02:54:00.143Z,23.35
2022-10-08T02:56:57.701Z,18.23
2022-10-08T02:59:49.026Z,25.40
2022-10-08T03:02:51.805Z,20.60
2022-10-08T03:05:44.627Z,22.40
2022-10-08T03:08:44.605Z,20.10
2022-10-08T03:11:35.922Z,23.48
2022-10-08T03:14:27.703Z,24.00
2022-10-08T03:17:25.310Z,23.48
2022-10-08T03:20:16.695Z,23.08
2022-10-08T03:23:08.409Z,19.38
2022-10-08T03:25:59.940Z,19.35
2022-10-08T03:28:53.616Z,23.02
2022-10-08T03:31:52.588Z,24.33
2022-10-08T03:34:43.907Z,19.23
2022-10-08T03:37:36.281Z,24.20
2022-10-08T03:40:35.107Z,23.30
2022-10-08T03:43:34.165Z,29.38
2022-10-08T03:46:25.484Z,20.83
2022-10-08T03:49:21.773Z,21.90
2022-10-08T03:52:15.997Z,26.27
2022-10-08T03:55:08.155Z,22.73
2022-10-08T03:58:01.800Z,22.77
2022-10-08T04:01:09.732Z,22.75
2022-10-08T04:04:03.018Z,24.10
2022-10-08T04:06:57.054Z,24.38
2022-10-08T04:09:48.117Z,25.88
2022-10-08T04:12:41.831Z,23.05
2022-10-08T04:15:33.121Z,24.08
2022-10-08T04:18:29.322Z,21.30
2022-10-08T04:21:39.726Z,22.33
2022-10-08T04:24:41.042Z,23.63
2022-10-08T04:27:40.014Z,24.42
2022-10-08T04:30:38.751Z,27.90
2022-10-08T04:33:39.236Z,22.33
2022-10-08T04:36:36.413Z,22.83
2022-10-08T04:39:31.703Z,23.20
2022-10-08T04:42:22.850Z,25.30
2022-10-08T04:45:14.535Z,18.33
2022-10-08T04:48:10.210Z,24.85
2022-10-08T04:51:11.151Z,23.27
2022-10-08T04:54:03.379Z,22.95
2022-10-08T04:56:58.487Z,27.00
2022-10-08T05:00:16.598Z,24.52
2022-10-08T05:03:07.010Z,33.13
2022-10-08T05:06:02.788Z,28.35
2022-10-08T05:09:04.533Z,39.25
2022-10-08T05:12:05.213Z,32.78
2022-10-08T05:14:56.358Z,29.20
2022-10-08T05:17:56.015Z,29.25
2022-10-08T05:20:57.133Z,32.67
2022-10-08T05:24:08.304Z,29.67
2022-10-08T05:27:25.521Z,27.92
2022-10-08T05:30:26.310Z,36.85
2022-10-08T05:33:29.142Z,31.90
2022-10-08T05:36:25.150Z,30.25
2022-10-08T05:39:33.948Z,32.78
2022-10-08T05:42:40.590Z,32.03
2022-10-08T05:45:51.792Z,32.10
2022-10-08T05:49:05.441Z,24.35
2022-10-08T05:52:05.424Z,23.42
2022-10-08T05:55:15.153Z,28.30
2022-10-08T05:58:28.491Z,23.98
2022-10-08T06:01:26.940Z,27.20
2022-10-08T06:04:21.963Z,27.83
2022-10-08T06:07:13.966Z,25.80
2022-10-08T06:10:04.817Z,25.65
2022-10-08T06:12:56.323Z,26.00
2022-10-08T06:16:11.487Z,25.92
2022-10-08T06:19:03.397Z,25.83
2022-10-08T06:21:56.626Z,31.85
2022-10-08T06:24:47.460Z,30.77
2022-10-08T06:27:47.132Z,25.58
2022-10-08T06:30:42.453Z,28.17
2022-10-08T06:33:49.330Z,32.97
2022-10-08T06:36:48.504Z,31.88
2022-10-08T06:39:49.961Z,34.42
2022-10-08T06:42:50.610Z,33.25
2022-10-08T06:45:58.846Z,35.00
2022-10-08T06:49:10.625Z,37.17
2022-10-08T06:52:08.801Z,36.33
2022-10-08T06:55:04.568Z,38.17
2022-10-08T06:57:55.509Z,40.88
2022-10-08T07:00:49.544Z,34.42
2022-10-08T07:06:34.908Z,33.28
2022-10-08T07:09:31.169Z,34.22
2022-10-08T07:12:23.340Z,30.70
2022-10-08T07:15:23.161Z,30.83
2022-10-08T07:18:14.551Z,26.95
2022-10-08T07:21:08.742Z,25.13
2022-10-08T07:24:01.646Z,26.30
2022-10-08T07:26:52.894Z,21.83
2022-10-08T07:29:47.739Z,26.33
2022-10-08T07:32:39.596Z,20.15
2022-10-08T07:35:36.806Z,19.17
2022-10-08T07:38:27.439Z,21.17
2022-10-08T07:41:20.431Z,22.80
2022-10-08T07:44:12.195Z,22.17
2022-10-08T07:47:08.325Z,14.27
2022-10-08T07:50:02.374Z,12.30
2022-10-08T07:52:53.519Z,13.65
2022-10-08T07:55:44.321Z,10.23
2022-10-08T07:58:50.328Z,13.00
2022-10-08T08:01:49.592Z,13.65
2022-10-08T08:04:40.456Z,16.15
2022-10-08T08:07:31.717Z,10.27
2022-10-08T08:13:37.234Z,11.25
2022-10-08T08:16:32.420Z,13.93
2022-10-08T08:19:24.380Z,12.68
2022-10-08T08:22:17.272Z,12.77
2022-10-08T08:25:08.434Z,6.57
2022-10-08T08:27:59.043Z,11.48
2022-10-08T08:30:49.951Z,11.98
2022-10-08T08:33:41.329Z,10.40
2022-10-08T08:36:34.394Z,21.25
2022-10-08T08:39:26.763Z,9.73
2022-10-08T08:42:27.987Z,14.25
2022-10-08T08:45:45.895Z,10.82
2022-10-08T08:48:39.325Z,9.68
2022-10-08T08:51:29.473Z,8.63
2022-10-08T08:54:20.151Z,17.45
2022-10-08T08:57:30.930Z,11.25
2022-10-08T09:00:24.667Z,12.82
2022-10-08T09:03:34.863Z,14.32
2022-10-08T09:06:28.602Z,9.10
2022-10-08T09:09:39.035Z,9.83
2022-10-08T09:12:45.888Z,11.93
2022-10-08T09:15:38.078Z,11.52
2022-10-08T09:18:28.429Z,10.40
2022-10-08T09:21:22.631Z,15.50
2022-10-08T09:24:15.001Z,10.98
2022-10-08T09:27:14.636Z,13.15
2022-10-08T09:30:26.493Z,9.30
2022-10-08T09:33:29.535Z,12.50
2022-10-08T09:36:48.972Z,7.70
2022-10-08T09:39:39.128Z,7.45
2022-10-08T09:42:29.292Z,9.40
2022-10-08T09:45:34.732Z,17.58
2022-10-08T09:48:27.610Z,15.45
2022-10-08T09:51:18.368Z,8.43
2022-10-08T09:54:13.011Z,9.15
2022-10-08T09:57:03.874Z,9.98
2022-10-08T10:00:00.011Z,14.13
2022-10-08T10:02:54.299Z,12.50
2022-10-08T10:05:51.303Z,12.75
2022-10-08T10:08:43.246Z,7.78
2022-10-08T10:11:41.834Z,18.42
2022-10-08T10:14:51.827Z,10.07
2022-10-08T10:17:54.249Z,11.20
2022-10-08T10:20:49.546Z,8.18
2022-10-08T10:24:03.374Z,15.85
2022-10-08T10:26:56.705Z,11.35
2022-10-08T10:29:54.940Z,9.13
2022-10-08T10:32:55.176Z,7.78
2022-10-08T10:35:53.231Z,11.65
2022-10-08T10:39:03.746Z,10.57
2022-10-08T10:42:04.099Z,7.43
2022-10-08T10:44:57.773Z,8.60
2022-10-08T10:47:48.959Z,7.80
2022-10-08T10:50:54.179Z,7.85
2022-10-08T10:54:03.874Z,7.22
2022-10-08T10:57:04.627Z,8.40
2022-10-08T11:00:05.645Z,9.10
2022-10-08T11:03:07.229Z,9.73
2022-10-08T11:06:16.155Z,11.90
2022-10-08T11:09:21.581Z,8.00
2022-10-08T11:13:00.003Z,4.82
2022-10-08T11:16:09.182Z,14.50
2022-10-08T11:19:02.652Z,9.10
2022-10-08T11:21:55.561Z,13.13
2022-10-08T11:25:04.857Z,6.05
2022-10-08T11:28:07.733Z,13.20
2022-10-08T11:31:30.382Z,8.55
2022-10-08T11:34:26.915Z,9.18
2022-10-08T11:37:40.153Z,9.88
2022-10-08T11:40:43.081Z,7.60
2022-10-08T11:43:45.101Z,6.38
2022-10-08T11:46:36.553Z,8.77
2022-10-08T11:49:27.027Z,8.20
2022-10-08T11:52:17.411Z,9.93
2022-10-08T11:55:25.253Z,6.75
2022-10-08T11:58:23.705Z,9.50
2022-10-08T12:01:14.357Z,11.40
2022-10-08T12:04:20.178Z,5.40
2022-10-08T12:07:22.142Z,10.55
2022-10-08T12:10:18.141Z,5.85
2022-10-08T12:13:14.151Z,5.50
2022-10-08T12:16:07.728Z,6.70
2022-10-08T12:18:59.020Z,7.60
2022-10-08T12:21:50.424Z,5.97
2022-10-08T12:24:40.345Z,4.85
2022-10-08T12:27:37.755Z,6.30
2022-10-08T12:30:50.180Z,4.38
2022-10-08T12:33:40.913Z,5.35
2022-10-08T12:36:49.805Z,4.72
2022-10-08T12:39:44.899Z,6.35
2022-10-08T12:42:38.352Z,6.65
2022-10-08T12:45:40.208Z,4.63
2022-10-08T12:48:50.435Z,6.97
2022-10-08T12:51:58.724Z,11.18
2022-10-08T12:54:57.851Z,6.00
2022-10-08T12:57:50.386Z,6.80
2022-10-08T13:00:43.568Z,8.68
2022-10-08T13:03:33.969Z,4.47
2022-10-08T13:06:33.051Z,11.10
2022-10-08T13:09:35.121Z,8.68
2022-10-08T13:12:25.917Z,5.20
2022-10-08T13:15:23.864Z,5.18
2022-10-08T13:18:22.248Z,6.95
2022-10-08T13:21:36.020Z,3.78
2022-10-08T13:24:25.931Z,4.88
2022-10-08T13:27:25.407Z,6.50
2022-10-08T13:30:28.105Z,3.40
2022-10-08T13:33:21.284Z,9.88
2022-10-08T13:36:21.467Z,8.57
2022-10-08T13:39:27.395Z,6.78
2022-10-08T13:42:20.417Z,6.10
2022-10-08T13:45:25.394Z,3.47
2022-10-08T13:48:15.132Z,1.23
2022-10-08T13:51:05.111Z,7.88
2022-10-08T13:53:57.124Z,5.55
2022-10-08T13:56:47.082Z,4.28
2022-10-08T13:59:37.156Z,5.72
2022-10-08T14:02:27.567Z,4.78
2022-10-08T14:05:18.740Z,6.45
2022-10-08T14:08:25.366Z,4.43
2022-10-08T14:11:17.798Z,2.50
2022-10-08T14:14:12.746Z,1.40
2022-10-08T14:17:02.834Z,1.63
2022-10-08T14:19:55.311Z,7.45
2022-10-08T14:22:46.264Z,3.40
2022-10-08T14:25:36.561Z,9.80
2022-10-08T14:28:26.775Z,5.30
2022-10-08T14:31:17.113Z,5.55
2022-10-08T14:34:07.448Z,3.25
2022-10-08T14:36:57.937Z,4.88
2022-10-08T14:39:47.915Z,4.57
2022-10-08T14:42:37.804Z,4.68
2022-10-08T14:45:27.745Z,3.90
2022-10-08T14:48:18.232Z,3.50
2022-10-08T14:51:08.248Z,6.70
2022-10-08T14:53:58.495Z,3.15
2022-10-08T14:56:48.834Z,4.57
2022-10-08T14:59:40.356Z,3.75
2022-10-08T15:02:30.375Z,2.53
2022-10-08T15:05:20.418Z,3.03
2022-10-08T15:08:10.782Z,2.15
2022-10-08T15:11:03.689Z,2.15
2022-10-08T15:13:54.068Z,4.20
2022-10-08T15:16:44.434Z,2.97
2022-10-08T15:19:34.601Z,3.78
2022-10-08T15:22:24.579Z,6.57
2022-10-08T15:25:14.850Z,7.40
2022-10-08T15:28:05.343Z,1.63
2022-10-08T15:31:06.651Z,5.88
2022-10-08T15:33:59.543Z,3.78
2022-10-08T15:36:49.653Z,5.13
2022-10-08T15:39:39.911Z,5.47
2022-10-08T15:42:30.105Z,5.55
2022-10-08T15:45:20.016Z,2.20
2022-10-08T15:48:12.015Z,4.15
2022-10-08T15:51:02.596Z,3.30
2022-10-08T15:53:52.787Z,2.65
2022-10-08T15:56:42.630Z,2.58
2022-10-08T15:59:33.865Z,3.53
2022-10-08T16:02:25.036Z,3.28
2022-10-08T16:05:15.242Z,6.53
2022-10-08T16:08:08.676Z,5.13
2022-10-08T16:11:09.125Z,4.80
2022-10-08T16:14:06.541Z,5.43
2022-10-08T16:16:57.259Z,7.65
2022-10-08T16:19:47.324Z,4.50
2022-10-08T16:22:37.215Z,4.60
2022-10-08T16:25:27.306Z,6.68
2022-10-08T16:28:17.447Z,3.63
2022-10-08T16:31:08.441Z,5.60
2022-10-08T16:34:01.039Z,4.88
2022-10-08T16:36:51.290Z,5.43
2022-10-08T16:39:41.605Z,4.93
2022-10-08T16:42:31.717Z,5.65
2022-10-08T16:45:22.113Z,5.47
2022-10-08T16:48:12.023Z,6.15
2022-10-08T16:51:02.967Z,1.98
2022-10-08T16:53:55.747Z,6.03
2022-10-08T16:56:46.369Z,7.25
2022-10-08T16:59:36.633Z,5.20
2022-10-08T17:02:27.348Z,5.88
2022-10-08T17:05:17.443Z,7.22
2022-10-08T17:08:07.743Z,10.40
2022-10-08T17:10:57.773Z,6.55
2022-10-08T17:13:50.693Z,11.82
2022-10-08T17:16:43.342Z,18.35
2022-10-08T17:19:33.881Z,9.15
2022-10-08T17:22:24.367Z,9.82
2022-10-08T17:25:14.326Z,8.98
2022-10-08T17:28:04.250Z,9.45
2022-10-08T17:30:57.484Z,8.70
2022-10-08T17:33:48.001Z,10.48
2022-10-08T17:36:40.453Z,8.48
2022-10-08T17:39:32.548Z,7.13
2022-10-08T17:42:22.408Z,7.57
2022-10-08T17:45:12.314Z,7.40
2022-10-08T17:48:02.375Z,13.23
2022-10-08T17:50:52.362Z,11.02
2022-10-08T17:53:43.700Z,13.32
2022-10-08T17:56:34.835Z,6.18
2022-10-08T17:59:25.189Z,13.63
2022-10-08T18:02:15.005Z,9.02
2022-10-08T18:05:05.360Z,10.00
2022-10-08T18:07:55.270Z,11.75
2022-10-08T18:10:45.151Z,9.63
2022-10-08T18:13:35.767Z,10.63
2022-10-08T18:16:25.783Z,8.35
2022-10-08T18:19:17.014Z,8.40
2022-10-08T18:22:06.971Z,9.00
2022-10-08T18:24:57.048Z,8.55
2022-10-08T18:27:47.980Z,8.88
2022-10-08T18:30:38.374Z,11.25
2022-10-08T18:33:30.810Z,9.18
2022-10-08T18:36:24.217Z,8.77
2022-10-08T18:39:16.885Z,9.07
2022-10-08T18:42:07.184Z,8.57
2022-10-08T18:44:57.207Z,10.20
2022-10-08T18:47:47.354Z,13.88
2022-10-08T18:50:37.453Z,11.35
2022-10-08T18:53:30.659Z,7.90
2022-10-08T18:56:25.446Z,10.73
2022-10-08T18:59:16.900Z,8.88
2022-10-08T19:02:09.980Z,12.40
2022-10-08T19:05:00.939Z,10.23
2022-10-08T19:07:51.304Z,13.50
2022-10-08T19:10:41.880Z,9.80
2022-10-08T19:13:32.107Z,9.27
2022-10-08T19:16:22.168Z,9.07
2022-10-08T19:19:20.023Z,9.23
2022-10-08T19:22:10.326Z,7.57
2022-10-08T19:25:02.179Z,8.38
2022-10-08T19:27:53.984Z,7.13
2022-10-08T19:30:44.208Z,12.23
2022-10-08T19:33:34.694Z,12.38
2022-10-08T19:36:26.318Z,9.05
2022-10-08T19:39:22.548Z,11.93
2022-10-08T19:42:12.849Z,11.07
2022-10-08T19:45:03.341Z,7.88
2022-10-08T19:47:53.589Z,7.47
2022-10-08T19:50:43.720Z,8.93
2022-10-08T19:53:34.775Z,9.00
2022-10-08T19:56:25.380Z,10.63
2022-10-08T19:59:15.783Z,13.25
2022-10-08T20:02:05.859Z,11.82
2022-10-08T20:04:56.337Z,13.95
2022-10-08T20:07:46.732Z,9.55
2022-10-08T20:10:39.783Z,12.63
2022-10-08T20:13:30.107Z,11.35
2022-10-08T20:16:25.767Z,9.27
2022-10-08T20:19:21.482Z,10.00
2022-10-08T20:22:12.055Z,11.45
2022-10-08T20:25:02.315Z,9.52
2022-10-08T20:27:52.724Z,14.05
2022-10-08T20:30:43.544Z,15.60
2022-10-08T20:33:33.812Z,11.93
2022-10-08T20:36:24.407Z,11.07
2022-10-08T20:39:16.550Z,16.67
2022-10-08T20:42:06.664Z,14.32
2022-10-08T20:44:57.058Z,16.50
2022-10-08T20:47:47.023Z,16.15
2022-10-08T20:50:36.908Z,20.98
2022-10-08T20:53:27.130Z,16.25
2022-10-08T20:56:19.052Z,15.40
2022-10-08T20:59:13.296Z,14.10
2022-10-08T21:02:04.941Z,13.43
2022-10-08T21:04:55.005Z,11.35
2022-10-08T21:07:44.900Z,22.35
2022-10-08T21:10:38.149Z,10.23
2022-10-08T21:13:29.032Z,13.85
2022-10-08T21:16:22.376Z,12.63
2022-10-08T21:19:14.836Z,14.95
2022-10-08T21:22:04.759Z,16.77
2022-10-08T21:24:54.898Z,15.23
2022-10-08T21:27:45.414Z,16.83
2022-10-08T21:30:35.462Z,15.00
2022-10-08T21:33:25.715Z,13.82
2022-10-08T21:36:18.065Z,15.27
2022-10-08T21:39:10.836Z,13.93
2022-10-08T21:42:00.855Z,20.83
2022-10-08T21:44:50.806Z,13.43
2022-10-08T21:47:40.868Z,17.77
2022-10-08T21:50:35.255Z,15.45
2022-10-08T21:53:28.027Z,22.90
2022-10-08T21:56:22.215Z,13.43
2022-10-08T21:59:14.516Z,14.68
2022-10-08T22:02:04.371Z,15.48
2022-10-08T22:04:54.339Z,18.50
2022-10-08T22:07:44.374Z,12.52
2022-10-08T22:10:37.214Z,13.35
2022-10-08T22:13:27.742Z,14.75
2022-10-08T22:16:19.624Z,14.30
2022-10-08T22:19:10.000Z,14.18
2022-10-08T22:22:00.345Z,13.52
2022-10-08T22:24:50.434Z,13.95
2022-10-08T22:27:40.314Z,14.95
2022-10-08T22:30:33.291Z,18.95
2022-10-08T22:33:23.445Z,16.48
2022-10-08T22:36:16.801Z,16.33
2022-10-08T22:39:07.460Z,22.03
2022-10-08T22:41:57.669Z,17.80
2022-10-08T22:44:47.757Z,15.63
2022-10-08T22:47:37.647Z,19.92
2022-10-08T22:50:27.507Z,16.95
2022-10-08T22:53:17.839Z,14.20
2022-10-08T22:56:11.465Z,18.45
2022-10-08T22:59:01.881Z,13.32
2022-10-08T23:01:52.049Z,15.73
2022-10-08T23:04:42.413Z,16.55
2022-10-08T23:07:32.379Z,12.50
2022-10-08T23:10:23.640Z,12.70
2022-10-08T23:13:13.636Z,14.88
2022-10-08T23:16:05.366Z,12.65
2022-10-08T23:18:57.919Z,15.40
2022-10-08T23:21:47.932Z,13.00
2022-10-08T23:24:37.823Z,14.02
2022-10-08T23:27:27.744Z,14.98
2022-10-08T23:30:41.584Z,13.57
2022-10-08T23:33:28.812Z,16.45
2022-10-08T23:36:25.339Z,13.40
2022-10-08T23:39:16.531Z,12.77
2022-10-08T23:42:07.081Z,12.10
2022-10-08T23:44:57.372Z,11.05
2022-10-08T23:47:47.215Z,16.05
2022-10-08T23:50:38.439Z,15.68
2022-10-08T23:53:29.205Z,11.70
2022-10-08T23:56:19.424Z,17.65
2022-10-08T23:59:09.468Z,12.85
